Terminal Aerodrome Forecast
Issued by NWS Lake Charles, LA

Current Version | Previous Version | Text Only | Print | Product List | Glossary On
Versions: 1 2 3 4 5 6 7 8 9 10 11 12 13 14 15 16 17 18
000
FTUS44 KLCH 181735
TAFARA
TAF
KARA 181735Z 1818/1918 18014KT P6SM VCSH SCT015 BKN025
     FM190100 15008KT 5SM BR VCSH OVC008
     FM190800 16008KT 3SM BR VCTS OVC005CB
      TEMPO 1908/1912 3SM -SHRA OVC005
     FM191200 16012KT 3SM -SHRA VCTS OVC005CB=

USA.gov is the U.S. government's official web portal to all federal, state and local government web resources and services.